Ship Status Report: callsign BDCJ

sailwx.info

Track history (hours):
 
Tides and Currents Weather Stations Pressure Air Temp Water Temp Dewpoint Dewpoint Depression Visibility Wind Speed Wind Dir Waves Ship Positions

Oceanographic research ship ()

Last reported at 2017-May-20 10:52 UTC. Time now 2017-May-24 19:41 UTC.
Position N 22°37' E 120°17'.

Type: Ship (hazmat cat C). MMSI: 404455160.

Date/timePositionNaut miles runAvg speedWind from/ knotsBaromVisibWave heightAir tempDewpointWater temp
2017-May-20 10:52N 22°37' E 120°17'2 4.6
2017-May-20 10:30N 22°37' E 120°15'4 7.1
2017-May-20 10:00N 22°35' E 120°13'4 7.9
2017-May-20 09:30N 22°31' E 120°14'4 8.1
2017-May-20 09:00N 22°27' E 120°15'  
2017-May-14 07:41N 22°30' E 120°02'1 1.6
2017-May-14 07:13N 22°31' E 120°02'0 1.3
2017-May-14 06:52N 22°31' E 120°02'9 9.4
2017-May-14 05:52N 22°36' E 120°10'4 9.6
2017-May-14 05:30N 22°38' E 120°13'4 7.4
2017-May-14 05:00N 22°37' E 120°17'0 0.0
2017-May-13 07:11N 22°37' E 120°17'0 1.9
2017-May-13 07:00N 22°37' E 120°17'5 8.6
2017-May-13 06:29N 22°36' E 120°12'4 9.1
2017-May-13 06:00N 22°34' E 120°08'  
Track history (hours):
 
Tides and Currents Weather Stations Pressure Air Temp Water Temp Dewpoint Dewpoint Depression Visibility Wind Speed Wind Dir Waves Ship Positions

Oceanographic research ship ()

Last reported at 2017-May-20 10:52 UTC. Time now 2017-May-24 19:41 UTC.
Position N 22°37' E 120°17'.

Type: Ship (hazmat cat C). MMSI: 404455160.

Date/timePositionNaut miles runAvg speedWind from/ knotsBaromVisibWave heightAir tempDewpointWater temp
2017-May-20 10:52N 22°37' E 120°17'2 4.6
2017-May-20 10:30N 22°37' E 120°15'4 7.1
2017-May-20 10:00N 22°35' E 120°13'4 7.9
2017-May-20 09:30N 22°31' E 120°14'4 8.1
2017-May-20 09:00N 22°27' E 120°15'  
2017-May-14 07:41N 22°30' E 120°02'1 1.6
2017-May-14 07:13N 22°31' E 120°02'0 1.3
2017-May-14 06:52N 22°31' E 120°02'9 9.4
2017-May-14 05:52N 22°36' E 120°10'4 9.6
2017-May-14 05:30N 22°38' E 120°13'4 7.4
2017-May-14 05:00N 22°37' E 120°17'0 0.0
2017-May-13 07:11N 22°37' E 120°17'0 1.9
2017-May-13 07:00N 22°37' E 120°17'5 8.6
2017-May-13 06:29N 22°36' E 120°12'4 9.1
2017-May-13 06:00N 22°34' E 120°08'  

Dump ship's entire track history